createdAt,value
2018-04-24T00:00:35.689Z,9.35
2018-04-24T00:04:36.238Z,10.3
2018-04-24T00:10:36.864Z,8.3
2018-04-24T00:16:37.356Z,8.37
2018-04-24T00:20:37.871Z,10.9
2018-04-24T00:26:38.453Z,9.05
2018-04-24T00:30:39.580Z,8.82
2018-04-24T00:36:40.148Z,8.93
2018-04-24T00:42:40.639Z,6.99
2018-04-24T00:46:41.148Z,8.53
2018-04-24T00:52:41.591Z,10.9
2018-04-24T00:56:42.030Z,9.16
2018-04-24T00:58:42.496Z,6.78
2018-04-24T01:02:42.989Z,8.45
2018-04-24T01:08:43.493Z,9.02
2018-04-24T01:12:44.073Z,8.78
2018-04-24T01:18:44.728Z,8.56
2018-04-24T01:22:45.241Z,9.39
2018-04-24T01:24:45.780Z,9.18
2018-04-24T01:28:46.278Z,9.63
2018-04-24T01:34:46.817Z,9.12
2018-04-24T01:38:47.253Z,10.03
2018-04-24T01:44:47.807Z,6.87
2018-04-24T01:48:48.230Z,7.94
2018-04-24T01:50:48.710Z,8.35
2018-04-24T01:54:49.273Z,8.56
2018-04-24T02:00:49.878Z,10.5
2018-04-24T02:04:50.340Z,10.16
2018-04-24T02:10:50.873Z,7.8
2018-04-24T02:16:51.364Z,8.9
2018-04-24T02:20:51.882Z,10.44
2018-04-24T02:26:52.438Z,6.55
2018-04-24T02:30:52.976Z,8.59
2018-04-24T02:36:53.487Z,11.3
2018-04-24T02:42:53.987Z,11.42
2018-04-24T02:46:54.556Z,10.32
2018-04-24T02:52:55.115Z,10.05
2018-04-24T02:56:55.530Z,10.5
2018-04-24T02:58:55.988Z,9.56
2018-04-24T03:02:56.446Z,8.62
2018-04-24T03:08:56.953Z,10.73
2018-04-24T03:12:57.409Z,13.28
2018-04-24T03:18:58.034Z,7.95
2018-04-24T03:22:58.619Z,10.68
2018-04-24T03:24:59.041Z,8.88
2018-04-24T03:28:59.416Z,11.34
2018-04-24T03:35:00.016Z,7.67
2018-04-24T03:39:00.413Z,11.53
2018-04-24T03:45:00.948Z,9.43
2018-04-24T03:49:01.517Z,12.16
2018-04-24T03:51:01.945Z,10.63
2018-04-24T03:55:02.696Z,11.44
2018-04-24T04:01:03.182Z,12.35
2018-04-24T04:05:03.647Z,12.22
2018-04-24T04:11:04.205Z,11.76
2018-04-24T04:17:04.724Z,8.64
2018-04-24T04:21:05.225Z,10.48
2018-04-24T04:27:05.924Z,7.89
2018-04-24T04:31:06.482Z,8.81
2018-04-24T04:37:07.012Z,10.9
2018-04-24T04:43:07.522Z,11.8
2018-04-24T04:47:08.121Z,12.36
2018-04-24T04:53:08.611Z,12.25
2018-04-24T05:03:10.581Z,9.9
2018-04-24T05:03:10.642Z,11.89
2018-04-24T05:09:11.158Z,12.09
2018-04-24T05:13:11.663Z,12.02
2018-04-24T05:19:12.269Z,9.56
2018-04-24T05:23:12.801Z,10.4
2018-04-24T05:25:13.319Z,10.4
2018-04-24T05:29:13.865Z,11.53
2018-04-24T05:35:14.406Z,11.03
2018-04-24T05:39:15.024Z,11.41
2018-04-24T05:45:16.048Z,9.88
2018-04-24T05:49:16.574Z,11.48
2018-04-24T05:51:17.154Z,6.41
2018-04-24T05:55:17.714Z,9.59
2018-04-24T06:01:18.205Z,9.99
2018-04-24T06:05:19.065Z,10.21
2018-04-24T06:11:19.591Z,14.12
2018-04-24T06:17:20.100Z,11.11
2018-04-24T06:21:20.580Z,11.35
2018-04-24T06:27:21.206Z,9.91
2018-04-24T06:31:21.669Z,11.2
2018-04-24T06:37:22.270Z,9.48
2018-04-24T06:43:22.844Z,8.81
2018-04-24T06:47:23.848Z,9.39
2018-04-24T06:53:24.400Z,11.86
2018-04-24T06:57:24.879Z,12.57
2018-04-24T07:03:25.448Z,14.21
2018-04-24T07:09:26.038Z,10.13
2018-04-24T07:13:26.578Z,12.48
2018-04-24T07:19:27.110Z,11.64
2018-04-24T07:23:27.788Z,11.32
2018-04-24T07:25:28.271Z,12.22
2018-04-24T07:29:28.796Z,14.31
2018-04-24T07:35:29.546Z,15.87
2018-04-24T07:39:30.042Z,13.89
2018-04-24T07:45:30.558Z,12.47
2018-04-24T07:49:31.069Z,14.08
2018-04-24T07:51:31.537Z,12.95
2018-04-24T07:55:32.164Z,16.25
2018-04-24T08:01:32.736Z,13.49
2018-04-24T08:05:33.430Z,15.67
2018-04-24T08:11:34.027Z,14.23
2018-04-24T08:17:34.738Z,16.95
2018-04-24T08:21:35.339Z,18.6
2018-04-24T08:27:35.903Z,13.81
2018-04-24T08:31:36.477Z,15.01
2018-04-24T08:37:36.995Z,15.63
2018-04-24T08:43:37.673Z,18.68
2018-04-24T08:47:38.268Z,15.5
2018-04-24T08:53:38.872Z,16.93
2018-04-24T08:57:39.473Z,14.66
2018-04-24T09:03:40.110Z,15.45
2018-04-24T09:09:40.720Z,14.25
2018-04-24T09:13:41.352Z,14.16
2018-04-24T09:19:41.927Z,14.39
2018-04-24T09:23:42.712Z,13.39
2018-04-24T09:25:43.350Z,13.76
2018-04-24T09:29:43.892Z,13.07
2018-04-24T09:35:44.545Z,13
2018-04-24T09:39:44.947Z,14.39
2018-04-24T09:45:45.495Z,12.06
2018-04-24T09:49:46.130Z,12.08
2018-04-24T09:51:46.611Z,11.94
2018-04-24T09:55:47.175Z,14.48
2018-04-24T10:01:47.822Z,11.91
2018-04-24T10:05:48.446Z,12.2
2018-04-24T10:11:48.869Z,15.08
2018-04-24T10:15:49.504Z,13.82
2018-04-24T10:17:49.947Z,14.71
2018-04-24T10:21:50.529Z,19.35
2018-04-24T10:27:51.123Z,14.3
2018-04-24T10:31:51.615Z,10.79
2018-04-24T10:37:52.260Z,13.66
2018-04-24T10:43:52.860Z,13.76
2018-04-24T10:47:53.350Z,12.98
2018-04-24T10:53:54.120Z,11.78
2018-04-24T10:57:55.623Z,14.02
2018-04-24T11:03:56.200Z,11.42
2018-04-24T11:09:56.865Z,12.48
2018-04-24T11:13:57.497Z,13.22
2018-04-24T11:19:58.797Z,10.29
2018-04-24T11:23:59.532Z,12.74
2018-04-24T11:25:59.999Z,9.62
2018-04-24T11:30:00.559Z,11.44
2018-04-24T11:36:01.218Z,11.01
2018-04-24T11:40:01.676Z,11.95
2018-04-24T11:46:02.391Z,10.84
2018-04-24T11:50:03.034Z,12.18
2018-04-24T11:52:03.460Z,10.57
2018-04-24T11:56:04.144Z,10.81
2018-04-24T12:02:04.776Z,10.94
2018-04-24T12:06:05.331Z,11.67
2018-04-24T12:12:05.846Z,9.13
2018-04-24T12:16:06.370Z,11.06
2018-04-24T12:18:06.847Z,9.37
2018-04-24T12:22:07.411Z,11.48
2018-04-24T12:28:07.963Z,8.24
2018-04-24T12:32:08.494Z,9.34
2018-04-24T12:38:08.977Z,7.48
2018-04-24T12:44:09.712Z,8.74
2018-04-24T12:48:10.502Z,8.65
2018-04-24T12:54:11.019Z,7.83
2018-04-24T12:58:11.611Z,8.79
2018-04-24T13:04:12.190Z,9.15
2018-04-24T13:10:12.748Z,10.91
2018-04-24T13:14:13.326Z,9.43
2018-04-24T13:20:13.939Z,9.74
2018-04-24T13:24:14.406Z,12.11
2018-04-24T13:26:14.931Z,6.47
2018-04-24T13:30:15.877Z,7.9
2018-04-24T13:36:16.321Z,9.66
2018-04-24T13:40:16.829Z,10.82
2018-04-24T13:46:17.560Z,10.43
2018-04-24T13:50:18.887Z,10.3
2018-04-24T13:52:19.425Z,11.41
2018-04-24T13:56:20.017Z,12.14
2018-04-24T14:02:20.629Z,9.67
2018-04-24T14:06:21.294Z,10.73
2018-04-24T14:12:21.911Z,9.41
2018-04-24T14:16:22.440Z,9.72
2018-04-24T14:18:22.876Z,7.64
2018-04-24T14:22:23.451Z,9.12
2018-04-24T14:28:24.047Z,7.21
2018-04-24T14:32:24.959Z,8.84
2018-04-24T14:38:25.528Z,9.25
2018-04-24T14:44:26.138Z,10.32
2018-04-24T14:48:26.788Z,9.83
2018-04-24T14:54:27.417Z,9.59
2018-04-24T14:58:27.969Z,10.13
2018-04-24T15:04:28.471Z,10.06
2018-04-24T15:10:29.137Z,9.48
2018-04-24T15:14:29.736Z,9.64
2018-04-24T15:20:30.310Z,6.88
2018-04-24T15:24:30.862Z,9.19
2018-04-24T15:26:31.404Z,9.99
2018-04-24T15:30:31.970Z,9.03
2018-04-24T15:36:32.827Z,7.87
2018-04-24T15:40:33.474Z,9.46
2018-04-24T15:46:34.077Z,11.08
2018-04-24T15:50:34.882Z,9.65
2018-04-24T15:52:35.505Z,7.41
2018-04-24T16:02:37.481Z,8.23
2018-04-24T16:02:37.611Z,9.55
2018-04-24T16:06:38.263Z,10.71
2018-04-24T16:12:38.867Z,7.15
2018-04-24T16:16:39.382Z,8.92
2018-04-24T16:18:39.867Z,8.85
2018-04-24T16:22:40.548Z,10.56
2018-04-24T16:28:41.112Z,8.05
2018-04-24T16:32:41.759Z,10.09
2018-04-24T16:38:42.407Z,8.72
2018-04-24T16:44:43.020Z,10.87
2018-04-24T16:48:43.550Z,9.2
2018-04-24T16:54:44.017Z,8.62
2018-04-24T16:58:44.727Z,10.33
2018-04-24T17:04:45.215Z,10.7
2018-04-24T17:10:45.749Z,10.24
2018-04-24T17:14:46.353Z,11.29
2018-04-24T17:20:47.076Z,10.39
2018-04-24T17:24:47.705Z,11.03
2018-04-24T17:26:48.260Z,10.42
2018-04-24T17:30:48.892Z,11.58
2018-04-24T17:36:49.285Z,11.53
2018-04-24T17:40:49.924Z,12
2018-04-24T17:46:50.439Z,11.31
2018-04-24T17:50:51.116Z,10.8
2018-04-24T17:52:51.668Z,9.85
2018-04-24T17:56:52.252Z,11.23
2018-04-24T18:02:52.762Z,10.5
2018-04-24T18:06:53.353Z,11.37
2018-04-24T18:12:53.943Z,11.87
2018-04-24T18:18:54.678Z,11.1
2018-04-24T18:22:55.254Z,12.61
2018-04-24T18:28:55.810Z,11.57
2018-04-24T18:32:56.416Z,11.84
2018-04-24T18:38:57.026Z,12.17
2018-04-24T18:44:57.590Z,9.03
2018-04-24T18:48:58.169Z,11.61
2018-04-24T18:54:58.682Z,9.93
2018-04-24T18:58:59.197Z,10.51
2018-04-24T19:04:59.850Z,11.21
2018-04-24T19:11:00.364Z,9.73
2018-04-24T19:15:00.932Z,11.25
2018-04-24T19:21:01.508Z,11.08
2018-04-24T19:25:02.052Z,11.63
2018-04-24T19:27:02.667Z,10.78
2018-04-24T19:31:03.246Z,13.59
2018-04-24T19:37:03.850Z,8
2018-04-24T19:41:04.577Z,9.13
2018-04-24T19:47:05.022Z,6.93
2018-04-24T19:51:06.374Z,9.91
2018-04-24T19:53:07.095Z,11.68
2018-04-24T19:57:07.748Z,10.68
2018-04-24T20:03:08.119Z,10.2
2018-04-24T20:07:08.673Z,9.63
2018-04-24T20:13:09.274Z,10.55
2018-04-24T20:19:09.899Z,9.01
2018-04-24T20:23:10.521Z,11.17
2018-04-24T20:29:11.205Z,11.25
2018-04-24T20:39:13.388Z,11.87
2018-04-24T20:39:13.458Z,9.31
2018-04-24T20:45:14.482Z,10.16
2018-04-24T20:49:14.929Z,10.62
2018-04-24T20:55:15.595Z,11.96
2018-04-24T20:59:16.107Z,12.07
2018-04-24T21:05:16.828Z,9.33
2018-04-24T21:11:17.403Z,10.94
2018-04-24T21:15:18.433Z,8.37
2018-04-24T21:21:19.056Z,10.59
2018-04-24T21:25:19.670Z,9.81
2018-04-24T21:27:20.116Z,10.19
2018-04-24T21:31:20.676Z,9.95
2018-04-24T21:37:21.207Z,9.16
2018-04-24T21:41:22.673Z,9.36
2018-04-24T21:47:23.181Z,8.86
2018-04-24T21:51:23.685Z,10.2
2018-04-24T21:53:24.745Z,13.25
2018-04-24T21:57:25.387Z,8.64
2018-04-24T22:03:25.921Z,7.8
2018-04-24T22:07:26.450Z,11.53
2018-04-24T22:13:27.049Z,12.21
2018-04-24T22:19:27.844Z,9.27
2018-04-24T22:23:28.401Z,9.07
2018-04-24T22:29:29.014Z,10.43
2018-04-24T22:33:29.612Z,10.89
2018-04-24T22:39:30.156Z,9.93
2018-04-24T22:45:31.988Z,11.77
2018-04-24T22:49:32.791Z,12.4
2018-04-24T22:55:33.709Z,8.23
2018-04-24T22:59:34.276Z,11.75
2018-04-24T23:05:35.149Z,12.14
2018-04-24T23:11:35.728Z,12.68
2018-04-24T23:15:36.282Z,12.38
2018-04-24T23:21:37.091Z,10.35
2018-04-24T23:25:37.595Z,15.36
2018-04-24T23:27:38.130Z,10.82
2018-04-24T23:31:38.652Z,11.68
2018-04-24T23:37:39.110Z,11.94
2018-04-24T23:41:39.721Z,12.39
2018-04-24T23:47:40.176Z,10.86
2018-04-24T23:51:40.670Z,12.96
2018-04-24T23:53:41.146Z,11.44
2018-04-24T23:57:41.698Z,13.95
